Monday, March 2, 2015, 10:05 PM EST

KSBY, Salisbury-wicomico Cty Reg

Location: Salisbury, MD, United States Lat: 38.333
Local Time: 10:05 PM EST ( 3:05 GMT) Lon: -75.5
Time Zone: US/Eastern Elev: 52 ft

Show me the last for .
Show Decoded

2015-03-02 20:54 METAR KSBY 030154Z 33006KT 10SM CLR 01/M08 A3038 RMK AO2 SLP291 T00061078 =
2015-03-02 19:54 METAR KSBY 030054Z 29003KT 10SM CLR 02/M08 A3036 RMK AO2 SLP283 T00171078 =
2015-03-02 18:54 METAR KSBY 022354Z 31005KT 10SM CLR 03/M08 A3035 RMK AO2 SLP281 T00281078 10078
                 20028 53031 =
2015-03-02 17:54 METAR KSBY 022254Z 33007KT 10SM CLR 04/M06 A3031 RMK AO2 SLP268 T00391061 =
2015-03-02 16:54 METAR KSBY 022154Z 33012KT 10SM CLR 06/M06 A3028 RMK AO2 SLP256 T00611061 =
2015-03-02 15:54 METAR KSBY 022054Z 31009KT 10SM CLR 07/M06 A3026 =
2015-03-02 14:54 METAR KSBY 021954Z 31011G19KT 10SM CLR 07/M06 A3025 RMK AO2 SLP247 T00721061 =
2015-03-02 13:54 METAR KSBY 021854Z 31013G21KT 10SM CLR 07/M04 A3024 RMK AO2 PK WND 31027/1812
                 SLP244 T00721044 =
2015-03-02 12:54 METAR KSBY 021754Z 31018G26KT 10SM CLR 07/M04 A3025 RMK AO2 PK WND 31026/1753
                 SLP245 T00671044 10067 20017 50011 =
2015-03-02 11:54 METAR KSBY 021654Z 29013G20KT 10SM CLR 07/M02 A3025 RMK AO2 PK WND 32026/1627
                 SLP246 T00671022 =
2015-03-02 10:54 METAR KSBY 021554Z 32015KT 8SM CLR 05/01 A3024 RMK AO2 SLP242 T00500006 =
2015-03-02 09:54 METAR KSBY 021454Z 29005KT 4SM BR OVC065 03/01 A3021 RMK AO2 SLP234 T00280006
                 53032 =
2015-03-02 08:54 METAR KSBY 021354Z 26005KT 3SM BR OVC035 02/01 A3017 RMK AO2 SLP221 T00220006 =
2015-03-02 07:54 METAR KSBY 021254Z 27003KT 4SM BR OVC030 02/00 A3014 RMK AO2 SLP208 T00170000 =
2015-03-02 07:32 METAR KSBY 021232Z 29003KT 3SM BR SCT003 BKN030 OVC070 02/00 A3013 RMK AO2
                 T00170000 =
2015-03-02 07:03 METAR KSBY 021203Z 00000KT 3SM BR OVC003 02/00 A3012 RMK AO2 T00170000 =
2015-03-02 06:54 METAR KSBY 021154Z 27004KT 2 1/2SM BR OVC002 02/00 A3012 RMK AO2 SLP202 70047
                 T00170000 10017 20017 53006 =
2015-03-02 06:47 METAR KSBY 021147Z 26004KT 2 1/2SM BR OVC002 02/00 A3011 RMK AO2 T00170000 =
2015-03-02 06:32 METAR KSBY 021132Z 24004KT 1 1/4SM BR OVC002 02/00 A3010 RMK AO2 T00170000 =
2015-03-02 05:54 METAR KSBY 021054Z 28005KT 1/2SM FG VV002 02/00 A3012 RMK AO2 SLP201 T00170000 =
2015-03-02 04:54 METAR KSBY 020954Z AUTO 27005KT 3/4SM BR VV003 02/00 A3010 RMK AO2 SLP195
                 T00170000 =
2015-03-02 03:54 METAR KSBY 020854Z AUTO 26006KT 3/4SM BR VV002 02/00 A3010 =
2015-03-02 03:42 METAR KSBY 020842Z AUTO 29005KT 1SM BR VV003 02/00 A3010 RMK AO2 T00170000 =
2015-03-02 03:21 METAR KSBY 020821Z AUTO 22006KT 3/4SM BR VV002 02/00 A3010 =
2015-03-02 02:54 METAR KSBY 020754Z AUTO 25005KT 1 1/4SM BR OVC002 02/00 A3012 RMK AO2 SLP203
                 T00170000 =
2015-03-02 02:33 METAR KSBY 020733Z AUTO 26007KT 1 1/2SM BR OVC002 02/00 A3014 RMK AO2 T00170000
                 =
2015-03-02 02:04 METAR KSBY 020704Z AUTO 26006KT 2SM BR OVC002 02/00 A3015 RMK AO2 T00170000 =
2015-03-02 01:54 METAR KSBY 020654Z AUTO 23006KT 1 3/4SM BR OVC002 02/00 A3014 RMK AO2 SLP210
                 T00170000 =
2015-03-02 00:54 METAR KSBY 020554Z AUTO 25004KT 1 1/2SM BR OVC002 02/00 A3017 RMK AO2 SLP218
                 60008 T00170000 10017 20011 58024 =
2015-03-02 00:21 METAR KSBY 020521Z AUTO 22004KT 1 3/4SM BR OVC002 02/00 A3017 RMK AO2 PRESFR
                 T00170000 =
2015-03-01 23:54 METAR KSBY 020454Z AUTO 26005KT 2 1/2SM BR OVC002 02/00 A3021 RMK AO2 SLP233
                 T00170000 400171089 =
2015-03-01 23:18 METAR KSBY 020418Z AUTO 26004KT 1 3/4SM BR OVC002 02/00 A3023 RMK AO2 T00170000
                 =
2015-03-01 22:54 METAR KSBY 020354Z AUTO 27004KT 2SM BR OVC002 02/00 A3025 RMK AO2 SLP245
                 T00170000 =
2015-03-01 22:42 METAR KSBY 020342Z AUTO 25003KT 2 1/2SM BR OVC003 02/00 A3024 RMK AO2 T00170000
                 =

Support USWX by starting your Amazon purchase here.